createdAt,value
2018-02-15T00:00:42.551Z,25.20
2018-02-15T00:03:11.674Z,21.47
2018-02-15T00:05:41.520Z,19.57
2018-02-15T00:08:10.642Z,17.03
2018-02-15T00:10:39.735Z,19.50
2018-02-15T00:13:08.853Z,16.93
2018-02-15T00:15:37.937Z,20.43
2018-02-15T00:18:07.055Z,20.00
2018-02-15T00:20:36.173Z,18.73
2018-02-15T00:23:05.310Z,22.20
2018-02-15T00:25:34.398Z,20.43
2018-02-15T00:28:04.577Z,21.23
2018-02-15T00:30:33.673Z,16.57
2018-02-15T00:33:03.529Z,17.00
2018-02-15T00:35:32.637Z,20.50
2018-02-15T00:38:01.746Z,19.30
2018-02-15T00:40:30.886Z,20.80
2018-02-15T00:43:00.743Z,18.53
2018-02-15T00:45:29.858Z,19.43
2018-02-15T00:47:59.858Z,23.60
2018-02-15T00:50:28.954Z,23.93
2018-02-15T00:52:58.070Z,22.13
2018-02-15T00:55:27.180Z,15.77
2018-02-15T00:57:56.274Z,17.27
2018-02-15T01:00:25.358Z,19.47
2018-02-15T01:02:54.519Z,22.80
2018-02-15T01:05:23.629Z,21.73
2018-02-15T01:07:52.745Z,22.10
2018-02-15T01:10:21.841Z,16.43
2018-02-15T01:12:50.958Z,19.03
2018-02-15T01:15:20.176Z,17.83
2018-02-15T01:17:49.293Z,14.27
2018-02-15T01:20:18.444Z,19.90
2018-02-15T01:22:48.477Z,20.07
2018-02-15T01:25:17.596Z,26.60
2018-02-15T01:27:46.745Z,20.03
2018-02-15T01:30:15.837Z,16.60
2018-02-15T01:32:45.774Z,20.40
2018-02-15T01:35:15.014Z,21.47
2018-02-15T01:37:45.391Z,17.67
2018-02-15T01:40:14.518Z,16.10
2018-02-15T01:42:45.532Z,20.00
2018-02-15T01:45:15.547Z,20.80
2018-02-15T01:47:44.635Z,20.43
2018-02-15T01:50:13.743Z,20.50
2018-02-15T01:52:43.199Z,16.33
2018-02-15T01:55:12.305Z,17.47
2018-02-15T01:57:41.517Z,19.33
2018-02-15T02:00:10.636Z,20.13
2018-02-15T02:02:39.756Z,18.60
2018-02-15T02:05:09.601Z,15.97
2018-02-15T02:07:38.750Z,20.03
2018-02-15T02:10:07.856Z,17.07
2018-02-15T02:12:37.730Z,18.90
2018-02-15T02:15:06.852Z,18.17
2018-02-15T02:17:35.953Z,18.00
2018-02-15T02:20:05.075Z,20.30
2018-02-15T02:22:34.915Z,18.83
2018-02-15T02:25:04.046Z,16.53
2018-02-15T02:27:33.135Z,18.40
2018-02-15T02:30:03.031Z,18.23
2018-02-15T02:32:32.118Z,18.07
2018-02-15T02:35:01.218Z,19.73
2018-02-15T02:37:30.320Z,18.63
2018-02-15T02:39:59.414Z,21.30
2018-02-15T02:42:27.820Z,18.17
2018-02-15T02:44:56.787Z,21.53
2018-02-15T02:47:26.806Z,18.83
2018-02-15T02:49:55.905Z,21.73
2018-02-15T02:52:25.009Z,19.10
2018-02-15T02:54:54.096Z,18.30
2018-02-15T02:57:23.213Z,19.03
2018-02-15T02:59:52.330Z,18.07
2018-02-15T03:02:22.173Z,20.00
2018-02-15T03:04:51.285Z,22.97
2018-02-15T03:07:20.459Z,17.60
2018-02-15T03:09:49.578Z,17.63
2018-02-15T03:12:18.680Z,17.20
2018-02-15T03:14:47.801Z,18.10
2018-02-15T03:17:16.911Z,17.03
2018-02-15T03:19:46.004Z,18.30
2018-02-15T03:22:15.115Z,19.97
2018-02-15T03:24:44.976Z,21.33
2018-02-15T03:27:14.081Z,18.30
2018-02-15T03:29:43.192Z,20.60
2018-02-15T03:32:12.302Z,20.57
2018-02-15T03:34:41.400Z,22.50
2018-02-15T03:37:10.508Z,17.63
2018-02-15T03:39:40.374Z,17.60
2018-02-15T03:42:09.499Z,24.83
2018-02-15T03:44:38.601Z,18.93
2018-02-15T03:47:07.691Z,19.03
2018-02-15T03:49:36.811Z,22.80
2018-02-15T03:52:06.675Z,18.87
2018-02-15T03:54:36.569Z,17.67
2018-02-15T03:57:06.254Z,20.20
2018-02-15T03:59:36.130Z,18.33
2018-02-15T04:02:05.262Z,16.20
2018-02-15T04:04:35.144Z,20.53
2018-02-15T04:07:05.742Z,19.50
2018-02-15T04:09:34.848Z,19.60
2018-02-15T04:12:03.998Z,16.80
2018-02-15T04:14:33.092Z,17.80
2018-02-15T04:17:02.951Z,17.97
2018-02-15T04:19:32.070Z,18.50
2018-02-15T04:22:01.159Z,19.73
2018-02-15T04:24:30.261Z,20.13
2018-02-15T04:26:59.374Z,17.33
2018-02-15T04:29:28.473Z,21.10
2018-02-15T04:31:58.361Z,20.77
2018-02-15T04:34:27.445Z,19.30
2018-02-15T04:36:56.560Z,19.27
2018-02-15T04:39:27.161Z,18.37
2018-02-15T04:41:56.280Z,17.70
2018-02-15T04:44:25.376Z,21.00
2018-02-15T04:46:54.483Z,20.30
2018-02-15T04:49:23.616Z,19.40
2018-02-15T04:51:53.496Z,16.73
2018-02-15T04:54:22.614Z,17.93
2018-02-15T04:56:51.709Z,20.93
2018-02-15T04:59:21.597Z,17.07
2018-02-15T05:01:50.715Z,19.20
2018-02-15T05:04:19.826Z,19.57
2018-02-15T05:06:49.687Z,25.77
2018-02-15T05:09:18.837Z,20.87
2018-02-15T05:11:48.692Z,30.43
2018-02-15T05:14:17.788Z,23.07
2018-02-15T05:16:46.898Z,22.87
2018-02-15T05:19:16.004Z,20.20
2018-02-15T05:21:45.113Z,20.90
2018-02-15T05:24:14.208Z,18.70
2018-02-15T05:26:43.329Z,26.10
2018-02-15T05:29:13.187Z,23.17
2018-02-15T05:31:42.295Z,21.43
2018-02-15T05:34:11.390Z,22.20
2018-02-15T05:36:40.510Z,18.50
2018-02-15T05:39:09.627Z,20.03
2018-02-15T05:41:39.505Z,31.83
2018-02-15T05:44:08.618Z,19.90
2018-02-15T05:46:37.746Z,18.33
2018-02-15T05:49:06.836Z,24.23
2018-02-15T05:51:36.690Z,25.67
2018-02-15T05:54:05.809Z,20.27
2018-02-15T05:56:34.913Z,18.27
2018-02-15T05:59:04.027Z,27.13
2018-02-15T06:01:33.913Z,28.10
2018-02-15T06:04:03.102Z,19.70
2018-02-15T06:06:32.900Z,21.00
2018-02-15T06:09:02.030Z,17.37
2018-02-15T06:11:31.162Z,18.37
2018-02-15T06:14:01.090Z,16.13
2018-02-15T06:16:30.209Z,17.87
2018-02-15T06:18:59.348Z,21.13
2018-02-15T06:21:28.477Z,18.60
2018-02-15T06:23:57.623Z,18.23
2018-02-15T06:26:26.763Z,18.10
2018-02-15T06:28:56.659Z,21.73
2018-02-15T06:31:26.571Z,17.73
2018-02-15T06:33:55.703Z,19.30
2018-02-15T06:36:25.598Z,23.37
2018-02-15T06:38:54.743Z,18.97
2018-02-15T06:41:23.872Z,16.30
2018-02-15T06:43:53.007Z,16.27
2018-02-15T06:46:22.156Z,21.10
2018-02-15T06:48:51.278Z,15.50
2018-02-15T06:51:21.768Z,21.63
2018-02-15T06:53:50.892Z,16.67
2018-02-15T06:56:20.787Z,17.40
2018-02-15T06:58:49.924Z,23.97
2018-02-15T07:01:19.035Z,20.00
2018-02-15T07:03:48.218Z,22.37
2018-02-15T07:06:17.362Z,20.80
2018-02-15T07:08:46.493Z,27.23
2018-02-15T07:11:16.396Z,23.20
2018-02-15T07:13:45.518Z,25.33
2018-02-15T07:16:14.643Z,27.50
2018-02-15T07:18:43.778Z,20.53
2018-02-15T07:21:17.772Z,20.33
2018-02-15T07:23:47.672Z,16.83
2018-02-15T07:26:16.788Z,17.77
2018-02-15T07:28:45.928Z,23.63
2018-02-15T07:31:15.833Z,20.80
2018-02-15T07:33:45.740Z,21.77
2018-02-15T07:36:14.887Z,29.70
2018-02-15T07:38:44.026Z,22.17
2018-02-15T07:41:13.175Z,24.73
2018-02-15T07:43:43.077Z,23.63
2018-02-15T07:46:12.202Z,19.23
2018-02-15T07:48:41.390Z,21.97
2018-02-15T07:51:10.523Z,23.00
2018-02-15T07:53:39.660Z,20.73
2018-02-15T07:56:08.808Z,18.13
2018-02-15T07:58:37.945Z,19.40
2018-02-15T08:01:07.873Z,17.73
2018-02-15T08:03:37.014Z,19.50
2018-02-15T08:06:06.146Z,33.70
2018-02-15T08:08:36.048Z,33.00
2018-02-15T08:11:05.178Z,29.03
2018-02-15T08:13:34.330Z,21.43
2018-02-15T08:16:03.456Z,25.20
2018-02-15T08:18:33.359Z,23.80
2018-02-15T08:21:03.262Z,27.90
2018-02-15T08:23:32.428Z,20.63
2018-02-15T08:26:01.570Z,23.40
2018-02-15T08:28:30.706Z,31.63
2018-02-15T08:30:59.827Z,23.30
2018-02-15T08:33:28.955Z,24.67
2018-02-15T08:35:58.094Z,29.17
2018-02-15T08:38:27.229Z,21.77
2018-02-15T08:40:56.380Z,25.00
2018-02-15T08:43:25.509Z,22.20
2018-02-15T08:45:54.652Z,26.33
2018-02-15T08:48:24.554Z,24.90
2018-02-15T08:50:54.483Z,24.30
2018-02-15T08:53:24.369Z,24.17
2018-02-15T08:55:53.506Z,23.90
2018-02-15T08:58:22.650Z,19.87
2018-02-15T09:00:51.783Z,21.63
2018-02-15T09:03:21.710Z,24.70
2018-02-15T09:05:51.615Z,25.80
2018-02-15T09:08:21.583Z,22.93
2018-02-15T09:10:50.752Z,27.17
2018-02-15T09:13:19.876Z,31.00
2018-02-15T09:15:48.991Z,44.60
2018-02-15T09:18:18.132Z,36.37
2018-02-15T09:20:48.042Z,53.60
2018-02-15T09:23:17.947Z,56.93
2018-02-15T09:25:47.834Z,33.87
2018-02-15T09:28:16.986Z,30.23
2018-02-15T09:30:46.123Z,21.27
2018-02-15T09:33:15.282Z,27.37
2018-02-15T09:35:44.414Z,26.83
2018-02-15T09:38:13.563Z,23.03
2018-02-15T09:40:42.706Z,31.47
2018-02-15T09:43:11.871Z,26.80
2018-02-15T09:45:40.998Z,24.77
2018-02-15T09:48:10.169Z,24.87
2018-02-15T09:50:39.316Z,30.80
2018-02-15T09:53:08.446Z,24.87
2018-02-15T09:55:37.587Z,24.90
2018-02-15T09:58:06.726Z,21.27
2018-02-15T10:00:36.635Z,29.70
2018-02-15T10:03:05.767Z,26.53
2018-02-15T10:05:34.906Z,24.60
2018-02-15T10:08:04.015Z,26.00
2018-02-15T10:10:33.166Z,21.73
2018-02-15T10:13:02.295Z,25.47
2018-02-15T10:15:31.440Z,24.23
2018-02-15T10:18:01.392Z,25.97
2018-02-15T10:20:31.306Z,25.20
2018-02-15T10:23:00.432Z,25.40
2018-02-15T10:25:29.561Z,25.03
2018-02-15T10:27:58.713Z,26.67
2018-02-15T10:30:27.846Z,24.00
2018-02-15T10:32:57.787Z,29.53
2018-02-15T10:35:26.915Z,40.73
2018-02-15T10:37:56.065Z,28.10
2018-02-15T10:40:25.264Z,30.33
2018-02-15T10:42:54.395Z,30.70
2018-02-15T10:45:23.538Z,26.73
2018-02-15T10:47:53.465Z,24.33
2018-02-15T10:50:23.377Z,27.83
2018-02-15T10:52:52.546Z,26.43
2018-02-15T10:55:21.682Z,26.70
2018-02-15T10:57:50.845Z,30.07
2018-02-15T11:00:19.986Z,39.83
2018-02-15T11:02:54.695Z,25.97
2018-02-15T11:05:29.630Z,31.53
2018-02-15T11:07:58.777Z,27.93
2018-02-15T11:10:27.928Z,31.13
2018-02-15T11:12:57.841Z,39.50
2018-02-15T11:15:27.011Z,42.53
2018-02-15T11:17:56.152Z,55.13
2018-02-15T11:20:25.278Z,228.73
2018-02-15T11:22:54.435Z,132.60
2018-02-15T11:25:23.576Z,111.07
2018-02-15T11:27:52.803Z,38.33
2018-02-15T11:30:21.934Z,35.27
2018-02-15T11:32:51.080Z,37.83
2018-02-15T11:35:20.216Z,33.33
2018-02-15T11:37:49.356Z,25.40
2018-02-15T11:40:18.514Z,32.13
2018-02-15T11:42:47.685Z,34.50
2018-02-15T11:45:16.831Z,30.93
2018-02-15T11:47:45.978Z,38.43
2018-02-15T11:50:15.091Z,32.80
2018-02-15T11:52:44.233Z,36.97
2018-02-15T11:55:14.119Z,31.83
2018-02-15T11:57:43.286Z,31.23
2018-02-15T12:00:13.196Z,25.90
2018-02-15T12:02:42.342Z,31.57
2018-02-15T12:05:11.491Z,32.70
2018-02-15T12:07:40.648Z,40.60
2018-02-15T12:10:09.782Z,31.90
2018-02-15T12:12:38.929Z,35.50
2018-02-15T12:15:08.066Z,29.23
2018-02-15T12:17:37.229Z,28.33
2018-02-15T12:20:06.353Z,28.70
2018-02-15T12:22:35.520Z,28.07
2018-02-15T12:25:04.692Z,33.03
2018-02-15T12:27:33.836Z,31.43
2018-02-15T12:30:03.005Z,29.23
2018-02-15T12:32:32.160Z,29.63
2018-02-15T12:35:01.309Z,27.27
2018-02-15T12:37:30.448Z,30.50
2018-02-15T12:39:59.711Z,31.23
2018-02-15T12:42:28.863Z,31.20
2018-02-15T12:44:58.782Z,31.43
2018-02-15T12:47:28.694Z,32.90
2018-02-15T12:49:58.581Z,36.83
2018-02-15T12:52:27.739Z,31.93
2018-02-15T12:54:56.897Z,35.73
2018-02-15T12:57:26.797Z,32.97
2018-02-15T12:59:55.970Z,31.60
2018-02-15T13:02:25.110Z,38.17
2018-02-15T13:04:55.723Z,39.90
2018-02-15T13:07:24.856Z,32.27
2018-02-15T13:09:54.024Z,31.27
2018-02-15T13:12:41.182Z,33.37
2018-02-15T13:15:28.111Z,31.23
2018-02-15T13:17:57.253Z,39.00
2018-02-15T13:20:26.386Z,33.10
2018-02-15T13:22:55.538Z,40.23
2018-02-15T13:25:24.722Z,36.50
2018-02-15T13:41:34.323Z,39.93
2018-02-15T13:44:03.455Z,44.50
2018-02-15T13:46:32.617Z,40.03
2018-02-15T13:49:02.503Z,43.37
2018-02-15T13:51:32.415Z,41.20
2018-02-15T13:54:02.478Z,44.30
2018-02-15T13:56:31.716Z,51.63
2018-02-15T13:59:00.864Z,46.43
2018-02-15T14:01:30.009Z,46.67
2018-02-15T14:03:59.135Z,43.40
2018-02-15T14:06:28.280Z,43.83
2018-02-15T14:08:57.439Z,53.03
2018-02-15T14:11:26.564Z,46.73
2018-02-15T14:13:55.719Z,45.70
2018-02-15T14:16:24.847Z,44.80
2018-02-15T14:18:53.993Z,42.80
2018-02-15T14:21:24.483Z,40.40
2018-02-15T14:23:53.643Z,40.33
2018-02-15T14:26:22.776Z,42.30
2018-02-15T14:28:51.947Z,45.53
2018-02-15T14:31:21.080Z,45.63
2018-02-15T14:33:50.234Z,46.20
2018-02-15T14:36:19.384Z,46.80
2018-02-15T14:38:48.548Z,44.60
2018-02-15T14:41:17.676Z,54.60
2018-02-15T14:43:46.827Z,54.10
2018-02-15T14:46:15.938Z,56.93
2018-02-15T14:48:45.053Z,46.00
2018-02-15T14:51:14.360Z,45.50
2018-02-15T14:53:43.507Z,50.50
2018-02-15T14:56:13.413Z,46.90
2018-02-15T14:58:43.327Z,41.60
2018-02-15T15:01:13.242Z,45.93
2018-02-15T15:03:42.434Z,40.33
2018-02-15T15:06:11.604Z,50.50
2018-02-15T15:08:40.752Z,54.13
2018-02-15T15:11:09.912Z,59.50
2018-02-15T15:13:39.049Z,56.40
2018-02-15T15:16:08.211Z,50.37
2018-02-15T15:18:38.164Z,56.33
2018-02-15T15:21:07.340Z,57.53
2018-02-15T15:23:37.289Z,44.20
2018-02-15T15:26:08.325Z,47.50
2018-02-15T15:28:37.447Z,50.43
2018-02-15T15:31:07.379Z,51.13
2018-02-15T15:33:36.524Z,49.87
2018-02-15T15:36:05.670Z,49.50
2018-02-15T15:38:34.823Z,48.50
2018-02-15T15:41:03.997Z,51.13
2018-02-15T15:43:33.914Z,50.73
2018-02-15T15:46:03.845Z,53.70
2018-02-15T15:48:32.976Z,49.87
2018-02-15T15:51:02.140Z,47.33
2018-02-15T15:53:31.282Z,50.80
2018-02-15T15:56:00.448Z,56.93
2018-02-15T15:58:29.579Z,53.53
2018-02-15T16:00:58.691Z,62.63
2018-02-15T16:03:27.865Z,64.90
2018-02-15T16:05:57.033Z,59.07
2018-02-15T16:08:26.196Z,49.03
2018-02-15T16:10:55.319Z,53.23
2018-02-15T16:13:24.454Z,41.10
2018-02-15T16:15:53.591Z,47.70
2018-02-15T16:18:22.718Z,51.87
2018-02-15T16:20:52.647Z,55.77
2018-02-15T16:23:22.584Z,54.43
2018-02-15T16:25:51.763Z,55.70
2018-02-15T16:28:22.609Z,55.73
2018-02-15T16:30:52.535Z,68.17
2018-02-15T16:33:21.672Z,71.23
2018-02-15T16:35:50.841Z,61.27
2018-02-15T16:38:20.000Z,63.07
2018-02-15T16:40:50.946Z,56.70
2018-02-15T16:43:20.873Z,61.00
2018-02-15T16:45:50.012Z,53.80
2018-02-15T16:48:19.166Z,53.00
2018-02-15T16:50:49.095Z,60.60
2018-02-15T16:53:18.220Z,56.23
2018-02-15T16:55:47.385Z,62.80
2018-02-15T16:58:16.558Z,68.50
2018-02-15T17:00:46.464Z,74.00
2018-02-15T17:03:16.439Z,65.23
2018-02-15T17:05:45.578Z,58.40
2018-02-15T17:08:14.728Z,48.40
2018-02-15T17:10:43.885Z,53.60
2018-02-15T17:13:13.849Z,52.20
2018-02-15T17:15:42.976Z,72.90
2018-02-15T17:18:12.172Z,63.90
2018-02-15T17:20:42.259Z,70.37
2018-02-15T17:23:11.403Z,59.13
2018-02-15T17:25:40.519Z,65.73
2018-02-15T17:28:09.669Z,55.93
2018-02-15T17:30:38.816Z,57.30
2018-02-15T17:33:08.722Z,67.37
2018-02-15T17:35:38.628Z,82.80
2018-02-15T17:51:06.685Z,64.00
2018-02-15T17:53:36.629Z,67.57
2018-02-15T17:56:06.446Z,57.83
2018-02-15T17:58:35.585Z,64.77
2018-02-15T18:01:04.754Z,49.40
2018-02-15T18:03:33.941Z,55.57
2018-02-15T18:06:03.098Z,52.10
2018-02-15T18:08:32.250Z,52.13
2018-02-15T18:11:01.415Z,52.90
2018-02-15T18:13:30.576Z,91.33
2018-02-15T18:15:59.699Z,83.33
2018-02-15T18:18:29.626Z,73.23
2018-02-15T18:20:58.760Z,74.03
2018-02-15T18:23:27.931Z,69.27
2018-02-15T18:25:57.069Z,69.20
2018-02-15T18:28:26.228Z,84.60
2018-02-15T18:30:55.396Z,92.07
2018-02-15T18:33:25.314Z,93.00
2018-02-15T18:35:55.249Z,89.30
2018-02-15T18:38:24.401Z,83.83
2018-02-15T18:40:53.586Z,78.40
2018-02-15T18:43:22.736Z,89.27
2018-02-15T18:45:52.135Z,81.63
2018-02-15T18:48:22.066Z,71.43
2018-02-15T18:50:51.217Z,70.50
2018-02-15T18:53:20.402Z,76.27
2018-02-15T18:55:49.550Z,75.13
2018-02-15T18:58:18.700Z,75.80
2018-02-15T19:00:47.864Z,72.60
2018-02-15T19:03:17.587Z,92.10
2018-02-15T19:05:46.723Z,83.70
2018-02-15T19:08:16.636Z,84.30
2018-02-15T19:10:45.793Z,79.20
2018-02-15T19:13:14.944Z,75.23
2018-02-15T19:15:44.881Z,78.60
2018-02-15T19:18:14.018Z,85.67
2018-02-15T19:20:43.186Z,78.97
2018-02-15T19:23:12.328Z,72.53
2018-02-15T19:25:41.491Z,84.07
2018-02-15T19:28:10.632Z,80.97
2018-02-15T19:30:39.752Z,70.40
2018-02-15T19:33:08.944Z,71.77
2018-02-15T19:35:38.874Z,88.17
2018-02-15T19:38:08.039Z,73.87
2018-02-15T19:40:37.215Z,82.23
2018-02-15T19:43:07.158Z,73.47
2018-02-15T19:45:37.114Z,82.27
2018-02-15T19:48:06.298Z,76.43
2018-02-15T19:50:35.479Z,80.83
2018-02-15T19:53:05.403Z,69.43
2018-02-15T19:55:34.557Z,92.00
2018-02-15T19:58:03.716Z,83.83
2018-02-15T20:00:33.626Z,86.30
2018-02-15T20:03:02.803Z,95.90
2018-02-15T20:05:31.945Z,86.53
2018-02-15T20:08:01.101Z,97.07
2018-02-15T20:10:31.002Z,91.70
2018-02-15T20:13:00.899Z,102.60
2018-02-15T20:15:35.624Z,83.13
2018-02-15T20:18:04.767Z,91.57
2018-02-15T20:20:33.930Z,85.80
2018-02-15T20:23:03.845Z,83.50
2018-02-15T20:25:33.762Z,71.87
2018-02-15T20:28:08.332Z,77.80
2018-02-15T20:30:37.501Z,80.17
2018-02-15T20:33:07.431Z,79.43
2018-02-15T20:35:36.591Z,91.17
2018-02-15T20:38:12.042Z,83.67
2018-02-15T20:40:41.203Z,75.93
2018-02-15T20:43:10.349Z,72.47
2018-02-15T20:45:40.297Z,70.60
2018-02-15T20:48:09.428Z,66.00
2018-02-15T20:50:43.981Z,70.50
2018-02-15T20:53:19.526Z,62.30
2018-02-15T20:55:49.453Z,77.17
2018-02-15T20:58:19.428Z,114.60
2018-02-15T21:00:48.588Z,120.50
2018-02-15T21:03:17.746Z,149.37
2018-02-15T21:05:47.195Z,147.90
2018-02-15T21:08:16.320Z,126.07
2018-02-15T21:10:45.487Z,114.30
2018-02-15T21:13:14.644Z,101.33
2018-02-15T21:15:44.602Z,87.30
2018-02-15T21:18:13.762Z,84.97
2018-02-15T21:20:43.676Z,81.17
2018-02-15T21:23:12.828Z,95.73
2018-02-15T21:25:42.009Z,100.53
2018-02-15T21:28:11.152Z,96.23
2018-02-15T21:30:41.901Z,100.03
2018-02-15T21:33:12.628Z,80.53
2018-02-15T21:35:41.759Z,88.57
2018-02-15T21:38:11.928Z,96.37
2018-02-15T21:40:41.063Z,77.27
2018-02-15T21:43:11.009Z,78.67
2018-02-15T21:45:40.162Z,75.90
2018-02-15T21:48:10.094Z,78.83
2018-02-15T21:50:40.004Z,68.63
2018-02-15T21:53:10.771Z,64.83
2018-02-15T21:55:39.930Z,71.83
2018-02-15T21:58:09.847Z,65.97
2018-02-15T22:00:39.753Z,63.30
2018-02-15T22:03:08.915Z,58.20
2018-02-15T22:05:38.040Z,61.10
2018-02-15T22:08:07.933Z,63.10
2018-02-15T22:10:37.076Z,62.57
2018-02-15T22:13:07.034Z,60.17
2018-02-15T22:15:36.174Z,68.03
2018-02-15T22:18:05.302Z,83.40
2018-02-15T22:20:34.413Z,85.33
2018-02-15T22:23:03.542Z,79.30
2018-02-15T22:25:32.670Z,71.53
2018-02-15T22:28:02.547Z,64.50
2018-02-15T22:30:31.700Z,66.07
2018-02-15T22:33:00.814Z,81.83
2018-02-15T22:35:29.963Z,66.40
2018-02-15T22:37:59.065Z,52.83
2018-02-15T22:40:28.949Z,53.87
2018-02-15T22:42:58.054Z,50.27
2018-02-15T22:45:27.188Z,48.37
2018-02-15T22:47:57.037Z,40.50
2018-02-15T22:50:26.152Z,39.80
2018-02-15T22:52:55.270Z,50.13
2018-02-15T22:55:24.366Z,51.40
2018-02-15T22:57:53.466Z,40.80
2018-02-15T23:00:23.345Z,50.87
2018-02-15T23:02:52.451Z,50.57
2018-02-15T23:05:21.586Z,53.23
2018-02-15T23:07:51.490Z,52.37
2018-02-15T23:10:20.611Z,57.07
2018-02-15T23:12:49.747Z,57.10
2018-02-15T23:15:18.881Z,49.67
2018-02-15T23:17:47.985Z,50.20
2018-02-15T23:20:17.898Z,62.80
2018-02-15T23:22:46.997Z,64.77
2018-02-15T23:25:16.882Z,54.00
2018-02-15T23:27:45.960Z,57.77
2018-02-15T23:30:17.920Z,66.40
2018-02-15T23:32:47.771Z,57.57
2018-02-15T23:35:17.660Z,53.90
2018-02-15T23:37:47.558Z,56.77
2018-02-15T23:40:16.661Z,60.83
2018-02-15T23:42:45.772Z,63.47
2018-02-15T23:45:14.899Z,54.67
2018-02-15T23:47:44.791Z,53.13
2018-02-15T23:50:13.937Z,60.20
2018-02-15T23:52:43.058Z,58.87
2018-02-15T23:55:12.162Z,60.90
2018-02-15T23:57:41.260Z,51.33
